sensor_id;sensor_type;location;lat;lon;timestamp;temperature;humidity
68354;DHT22;55274;43.060;25.618;2023-04-06T00:01:41;5.30;97.80
68354;DHT22;55274;43.060;25.618;2023-04-06T00:04:07;5.30;98.30
68354;DHT22;55274;43.060;25.618;2023-04-06T00:06:33;5.20;97.30
68354;DHT22;55274;43.060;25.618;2023-04-06T00:09:00;5.20;98.30
68354;DHT22;55274;43.060;25.618;2023-04-06T00:11:26;5.10;98.60
68354;DHT22;55274;43.060;25.618;2023-04-06T00:13:52;5.10;98.20
68354;DHT22;55274;43.060;25.618;2023-04-06T00:16:18;5.00;98.50
68354;DHT22;55274;43.060;25.618;2023-04-06T00:18:44;5.00;98.30
68354;DHT22;55274;43.060;25.618;2023-04-06T00:21:14;5.00;98.20
68354;DHT22;55274;43.060;25.618;2023-04-06T00:23:41;5.00;98.30
68354;DHT22;55274;43.060;25.618;2023-04-06T00:26:07;5.00;98.30
68354;DHT22;55274;43.060;25.618;2023-04-06T00:28:33;5.00;97.80
68354;DHT22;55274;43.060;25.618;2023-04-06T00:30:59;5.00;97.80
68354;DHT22;55274;43.060;25.618;2023-04-06T00:33:24;4.90;97.90
68354;DHT22;55274;43.060;25.618;2023-04-06T00:35:50;4.90;97.90
68354;DHT22;55274;43.060;25.618;2023-04-06T00:38:17;4.90;99.90
68354;DHT22;55274;43.060;25.618;2023-04-06T00:40:43;4.90;99.90
68354;DHT22;55274;43.060;25.618;2023-04-06T00:43:12;4.80;99.90
68354;DHT22;55274;43.060;25.618;2023-04-06T00:45:41;4.70;99.90
68354;DHT22;55274;43.060;25.618;2023-04-06T00:48:08;4.70;99.90
68354;DHT22;55274;43.060;25.618;2023-04-06T00:50:34;4.70;99.90
68354;DHT22;55274;43.060;25.618;2023-04-06T00:53:00;4.70;99.90
68354;DHT22;55274;43.060;25.618;2023-04-06T00:55:27;4.60;99.90
68354;DHT22;55274;43.060;25.618;2023-04-06T00:57:53;4.50;99.90
68354;DHT22;55274;43.060;25.618;2023-04-06T01:00:20;4.50;99.90
68354;DHT22;55274;43.060;25.618;2023-04-06T01:02:46;4.40;99.90
68354;DHT22;55274;43.060;25.618;2023-04-06T01:05:13;4.20;99.90
68354;DHT22;55274;43.060;25.618;2023-04-06T01:07:39;4.10;99.90
68354;DHT22;55274;43.060;25.618;2023-04-06T01:10:05;4.10;99.90
68354;DHT22;55274;43.060;25.618;2023-04-06T01:12:31;4.10;99.90
68354;DHT22;55274;43.060;25.618;2023-04-06T01:14:57;4.00;99.90
68354;DHT22;55274;43.060;25.618;2023-04-06T01:17:23;3.90;99.90
68354;DHT22;55274;43.060;25.618;2023-04-06T01:19:49;3.80;99.90
68354;DHT22;55274;43.060;25.618;2023-04-06T01:22:17;3.80;99.90
68354;DHT22;55274;43.060;25.618;2023-04-06T01:24:43;3.60;99.90
68354;DHT22;55274;43.060;25.618;2023-04-06T01:27:08;3.60;99.90
68354;DHT22;55274;43.060;25.618;2023-04-06T01:29:35;3.60;99.90
68354;DHT22;55274;43.060;25.618;2023-04-06T01:32:00;3.50;99.90
68354;DHT22;55274;43.060;25.618;2023-04-06T01:34:26;3.50;99.90
68354;DHT22;55274;43.060;25.618;2023-04-06T01:36:52;3.40;99.90
68354;DHT22;55274;43.060;25.618;2023-04-06T01:39:18;3.40;99.90
68354;DHT22;55274;43.060;25.618;2023-04-06T01:41:44;3.40;99.90
68354;DHT22;55274;43.060;25.618;2023-04-06T01:44:14;3.40;99.90
68354;DHT22;55274;43.060;25.618;2023-04-06T01:46:40;3.30;99.90
68354;DHT22;55274;43.060;25.618;2023-04-06T01:49:06;3.30;99.90
68354;DHT22;55274;43.060;25.618;2023-04-06T01:51:32;3.30;99.90
68354;DHT22;55274;43.060;25.618;2023-04-06T01:53:57;3.30;99.90
68354;DHT22;55274;43.060;25.618;2023-04-06T01:56:23;3.30;99.90
68354;DHT22;55274;43.060;25.618;2023-04-06T01:58:49;3.30;99.90
68354;DHT22;55274;43.060;25.618;2023-04-06T02:01:15;3.30;99.90
68354;DHT22;55274;43.060;25.618;2023-04-06T02:03:41;3.30;99.90
68354;DHT22;55274;43.060;25.618;2023-04-06T02:06:07;3.40;99.90
68354;DHT22;55274;43.060;25.618;2023-04-06T02:08:32;3.40;99.90
68354;DHT22;55274;43.060;25.618;2023-04-06T02:10:58;3.50;99.90
68354;DHT22;55274;43.060;25.618;2023-04-06T02:13:24;3.50;99.90
68354;DHT22;55274;43.060;25.618;2023-04-06T02:15:50;3.50;99.90
68354;DHT22;55274;43.060;25.618;2023-04-06T02:18:16;3.50;99.90
68354;DHT22;55274;43.060;25.618;2023-04-06T02:20:43;3.50;99.90
68354;DHT22;55274;43.060;25.618;2023-04-06T02:23:10;3.50;99.90
68354;DHT22;55274;43.060;25.618;2023-04-06T02:25:36;3.50;99.90
68354;DHT22;55274;43.060;25.618;2023-04-06T02:28:02;3.50;99.90
68354;DHT22;55274;43.060;25.618;2023-04-06T02:30:28;3.50;99.90
68354;DHT22;55274;43.060;25.618;2023-04-06T02:32:55;3.60;99.90
68354;DHT22;55274;43.060;25.618;2023-04-06T02:35:21;3.60;99.90
68354;DHT22;55274;43.060;25.618;2023-04-06T02:37:46;3.60;99.90
68354;DHT22;55274;43.060;25.618;2023-04-06T02:40:13;3.70;99.90
68354;DHT22;55274;43.060;25.618;2023-04-06T02:42:39;3.70;99.90
68354;DHT22;55274;43.060;25.618;2023-04-06T02:45:06;3.70;99.90
68354;DHT22;55274;43.060;25.618;2023-04-06T02:47:32;3.70;99.90
68354;DHT22;55274;43.060;25.618;2023-04-06T02:49:58;3.70;99.90
68354;DHT22;55274;43.060;25.618;2023-04-06T02:52:24;3.70;99.90
68354;DHT22;55274;43.060;25.618;2023-04-06T02:54:50;3.70;99.90
68354;DHT22;55274;43.060;25.618;2023-04-06T02:57:16;3.70;99.90
68354;DHT22;55274;43.060;25.618;2023-04-06T02:59:42;3.80;99.90
68354;DHT22;55274;43.060;25.618;2023-04-06T03:02:08;3.80;99.90
68354;DHT22;55274;43.060;25.618;2023-04-06T03:04:34;3.80;99.90
68354;DHT22;55274;43.060;25.618;2023-04-06T03:07:00;3.80;99.90
68354;DHT22;55274;43.060;25.618;2023-04-06T03:09:26;3.80;99.90
68354;DHT22;55274;43.060;25.618;2023-04-06T03:11:52;3.80;99.90
68354;DHT22;55274;43.060;25.618;2023-04-06T03:14:18;3.80;99.90
68354;DHT22;55274;43.060;25.618;2023-04-06T03:16:48;3.80;99.90
68354;DHT22;55274;43.060;25.618;2023-04-06T03:19:14;3.80;99.90
68354;DHT22;55274;43.060;25.618;2023-04-06T03:21:41;3.80;99.90
68354;DHT22;55274;43.060;25.618;2023-04-06T03:24:07;3.80;99.90
68354;DHT22;55274;43.060;25.618;2023-04-06T03:26:33;3.80;99.90
68354;DHT22;55274;43.060;25.618;2023-04-06T03:28:59;3.80;99.90
68354;DHT22;55274;43.060;25.618;2023-04-06T03:31:26;3.80;99.90
68354;DHT22;55274;43.060;25.618;2023-04-06T03:33:52;3.80;99.90
68354;DHT22;55274;43.060;25.618;2023-04-06T03:36:18;3.70;99.90
68354;DHT22;55274;43.060;25.618;2023-04-06T03:38:44;3.80;99.90
68354;DHT22;55274;43.060;25.618;2023-04-06T03:41:09;3.80;99.90
68354;DHT22;55274;43.060;25.618;2023-04-06T03:43:36;3.80;99.90
68354;DHT22;55274;43.060;25.618;2023-04-06T03:46:01;3.80;99.90
68354;DHT22;55274;43.060;25.618;2023-04-06T03:48:27;3.80;99.90
68354;DHT22;55274;43.060;25.618;2023-04-06T03:50:53;3.90;99.90
68354;DHT22;55274;43.060;25.618;2023-04-06T03:53:19;3.90;99.90
68354;DHT22;55274;43.060;25.618;2023-04-06T03:55:45;3.90;99.90
68354;DHT22;55274;43.060;25.618;2023-04-06T03:58:10;3.90;99.90
68354;DHT22;55274;43.060;25.618;2023-04-06T04:00:36;3.90;99.90
68354;DHT22;55274;43.060;25.618;2023-04-06T04:03:02;3.90;99.90
68354;DHT22;55274;43.060;25.618;2023-04-06T04:05:28;4.00;99.90
68354;DHT22;55274;43.060;25.618;2023-04-06T04:07:54;4.00;99.90
68354;DHT22;55274;43.060;25.618;2023-04-06T04:10:20;4.00;99.90
68354;DHT22;55274;43.060;25.618;2023-04-06T04:12:46;4.10;99.90
68354;DHT22;55274;43.060;25.618;2023-04-06T04:15:12;4.10;99.90
68354;DHT22;55274;43.060;25.618;2023-04-06T04:17:38;4.10;99.90
68354;DHT22;55274;43.060;25.618;2023-04-06T04:20:04;4.10;99.90
68354;DHT22;55274;43.060;25.618;2023-04-06T04:22:30;4.10;99.90
68354;DHT22;55274;43.060;25.618;2023-04-06T04:24:56;4.10;99.90
68354;DHT22;55274;43.060;25.618;2023-04-06T04:27:21;4.10;99.90
68354;DHT22;55274;43.060;25.618;2023-04-06T04:29:47;4.10;99.90
68354;DHT22;55274;43.060;25.618;2023-04-06T04:32:13;4.10;99.90
68354;DHT22;55274;43.060;25.618;2023-04-06T04:34:39;4.10;99.90
68354;DHT22;55274;43.060;25.618;2023-04-06T04:37:07;4.20;99.90
68354;DHT22;55274;43.060;25.618;2023-04-06T04:39:33;4.20;99.90
68354;DHT22;55274;43.060;25.618;2023-04-06T04:41:59;4.20;99.90
68354;DHT22;55274;43.060;25.618;2023-04-06T04:44:25;4.30;99.90
68354;DHT22;55274;43.060;25.618;2023-04-06T04:46:51;4.30;99.90
68354;DHT22;55274;43.060;25.618;2023-04-06T04:49:17;4.40;99.90
68354;DHT22;55274;43.060;25.618;2023-04-06T04:51:42;4.50;99.90
68354;DHT22;55274;43.060;25.618;2023-04-06T04:54:08;4.50;99.90
68354;DHT22;55274;43.060;25.618;2023-04-06T04:56:34;4.60;99.90
68354;DHT22;55274;43.060;25.618;2023-04-06T04:59:00;4.60;99.90
68354;DHT22;55274;43.060;25.618;2023-04-06T05:01:25;4.60;99.90
68354;DHT22;55274;43.060;25.618;2023-04-06T05:03:51;4.70;99.90
68354;DHT22;55274;43.060;25.618;2023-04-06T05:06:17;4.80;99.90
68354;DHT22;55274;43.060;25.618;2023-04-06T05:08:44;4.90;99.90
68354;DHT22;55274;43.060;25.618;2023-04-06T05:11:10;4.90;99.90
68354;DHT22;55274;43.060;25.618;2023-04-06T05:13:36;5.00;99.90
68354;DHT22;55274;43.060;25.618;2023-04-06T05:16:02;5.00;99.90
68354;DHT22;55274;43.060;25.618;2023-04-06T05:18:28;5.10;99.90
68354;DHT22;55274;43.060;25.618;2023-04-06T05:20:54;5.10;99.90
68354;DHT22;55274;43.060;25.618;2023-04-06T05:23:20;5.20;99.90
68354;DHT22;55274;43.060;25.618;2023-04-06T05:25:46;5.30;99.90
68354;DHT22;55274;43.060;25.618;2023-04-06T05:28:12;5.40;99.90
68354;DHT22;55274;43.060;25.618;2023-04-06T05:30:40;5.40;99.90
68354;DHT22;55274;43.060;25.618;2023-04-06T05:33:06;5.50;99.90
68354;DHT22;55274;43.060;25.618;2023-04-06T05:35:31;5.60;99.90
68354;DHT22;55274;43.060;25.618;2023-04-06T05:37:57;5.60;99.90
68354;DHT22;55274;43.060;25.618;2023-04-06T05:40:23;5.70;99.90
68354;DHT22;55274;43.060;25.618;2023-04-06T05:42:49;5.80;99.90
68354;DHT22;55274;43.060;25.618;2023-04-06T05:45:15;5.90;99.90
68354;DHT22;55274;43.060;25.618;2023-04-06T05:47:43;5.90;99.90
68354;DHT22;55274;43.060;25.618;2023-04-06T05:50:12;6.10;99.90
68354;DHT22;55274;43.060;25.618;2023-04-06T05:52:38;6.10;99.90
68354;DHT22;55274;43.060;25.618;2023-04-06T05:55:04;6.20;99.90
68354;DHT22;55274;43.060;25.618;2023-04-06T05:57:30;6.30;99.90
68354;DHT22;55274;43.060;25.618;2023-04-06T05:59:56;6.40;99.90
68354;DHT22;55274;43.060;25.618;2023-04-06T06:02:22;6.40;99.90
68354;DHT22;55274;43.060;25.618;2023-04-06T06:04:48;6.30;99.00
68354;DHT22;55274;43.060;25.618;2023-04-06T06:07:14;6.40;99.90
68354;DHT22;55274;43.060;25.618;2023-04-06T06:09:40;6.30;98.80
68354;DHT22;55274;43.060;25.618;2023-04-06T06:12:06;6.30;98.60
68354;DHT22;55274;43.060;25.618;2023-04-06T06:14:33;6.30;98.20
68354;DHT22;55274;43.060;25.618;2023-04-06T06:16:58;6.30;98.30
68354;DHT22;55274;43.060;25.618;2023-04-06T06:19:24;6.30;96.30
68354;DHT22;55274;43.060;25.618;2023-04-06T06:21:50;6.30;96.50
68354;DHT22;55274;43.060;25.618;2023-04-06T06:24:16;6.40;97.30
68354;DHT22;55274;43.060;25.618;2023-04-06T06:26:42;6.40;96.40
68354;DHT22;55274;43.060;25.618;2023-04-06T06:29:08;6.50;97.30
68354;DHT22;55274;43.060;25.618;2023-04-06T06:31:34;6.50;97.00
68354;DHT22;55274;43.060;25.618;2023-04-06T06:34:00;6.50;96.20
68354;DHT22;55274;43.060;25.618;2023-04-06T06:36:28;6.50;96.50
68354;DHT22;55274;43.060;25.618;2023-04-06T06:38:56;6.60;96.80
68354;DHT22;55274;43.060;25.618;2023-04-06T06:41:22;6.70;96.30
68354;DHT22;55274;43.060;25.618;2023-04-06T06:43:48;6.70;96.10
68354;DHT22;55274;43.060;25.618;2023-04-06T06:46:13;6.80;96.20
68354;DHT22;55274;43.060;25.618;2023-04-06T06:48:39;6.80;93.80
68354;DHT22;55274;43.060;25.618;2023-04-06T06:51:05;6.90;94.30
68354;DHT22;55274;43.060;25.618;2023-04-06T06:53:31;7.00;94.10
68354;DHT22;55274;43.060;25.618;2023-04-06T06:55:57;7.00;92.80
68354;DHT22;55274;43.060;25.618;2023-04-06T06:58:23;7.00;92.50
68354;DHT22;55274;43.060;25.618;2023-04-06T07:00:49;7.10;92.10
68354;DHT22;55274;43.060;25.618;2023-04-06T07:03:14;7.20;91.70
68354;DHT22;55274;43.060;25.618;2023-04-06T07:05:47;7.10;91.10
68354;DHT22;55274;43.060;25.618;2023-04-06T07:08:20;7.20;91.50
68354;DHT22;55274;43.060;25.618;2023-04-06T07:10:46;7.20;90.00
68354;DHT22;55274;43.060;25.618;2023-04-06T07:13:12;7.10;89.20
68354;DHT22;55274;43.060;25.618;2023-04-06T07:15:40;7.20;89.80
68354;DHT22;55274;43.060;25.618;2023-04-06T07:18:05;7.20;89.40
68354;DHT22;55274;43.060;25.618;2023-04-06T07:20:31;7.20;89.60
68354;DHT22;55274;43.060;25.618;2023-04-06T07:22:57;7.30;89.60
68354;DHT22;55274;43.060;25.618;2023-04-06T07:25:23;7.30;89.20
68354;DHT22;55274;43.060;25.618;2023-04-06T07:27:49;7.40;88.40
68354;DHT22;55274;43.060;25.618;2023-04-06T07:30:14;7.40;88.80
68354;DHT22;55274;43.060;25.618;2023-04-06T07:32:40;7.40;87.20
68354;DHT22;55274;43.060;25.618;2023-04-06T07:35:06;7.40;87.60
68354;DHT22;55274;43.060;25.618;2023-04-06T07:37:32;7.60;87.50
68354;DHT22;55274;43.060;25.618;2023-04-06T07:39:58;7.60;86.50
68354;DHT22;55274;43.060;25.618;2023-04-06T07:42:24;7.70;86.00
68354;DHT22;55274;43.060;25.618;2023-04-06T07:44:49;7.70;86.80
68354;DHT22;55274;43.060;25.618;2023-04-06T07:47:15;7.80;85.00
68354;DHT22;55274;43.060;25.618;2023-04-06T07:49:41;7.90;85.50
68354;DHT22;55274;43.060;25.618;2023-04-06T07:52:07;8.00;84.70
68354;DHT22;55274;43.060;25.618;2023-04-06T07:54:32;8.10;84.30
68354;DHT22;55274;43.060;25.618;2023-04-06T07:56:58;8.10;84.10
68354;DHT22;55274;43.060;25.618;2023-04-06T07:59:24;8.10;82.60
68354;DHT22;55274;43.060;25.618;2023-04-06T08:01:50;8.20;82.40
68354;DHT22;55274;43.060;25.618;2023-04-06T08:04:15;8.20;82.00
68354;DHT22;55274;43.060;25.618;2023-04-06T08:06:41;8.20;81.50
68354;DHT22;55274;43.060;25.618;2023-04-06T08:09:07;8.30;82.10
68354;DHT22;55274;43.060;25.618;2023-04-06T08:11:33;8.30;81.50
68354;DHT22;55274;43.060;25.618;2023-04-06T08:13:59;8.40;81.70
68354;DHT22;55274;43.060;25.618;2023-04-06T08:16:25;8.40;80.60
68354;DHT22;55274;43.060;25.618;2023-04-06T08:18:50;8.50;81.30
68354;DHT22;55274;43.060;25.618;2023-04-06T08:21:16;8.60;80.40
68354;DHT22;55274;43.060;25.618;2023-04-06T08:23:42;8.50;79.90
68354;DHT22;55274;43.060;25.618;2023-04-06T08:26:08;8.40;79.70
68354;DHT22;55274;43.060;25.618;2023-04-06T08:28:33;8.40;79.90
68354;DHT22;55274;43.060;25.618;2023-04-06T08:31:04;8.40;79.50
68354;DHT22;55274;43.060;25.618;2023-04-06T08:33:30;8.50;80.70
68354;DHT22;55274;43.060;25.618;2023-04-06T08:35:56;8.60;80.20
68354;DHT22;55274;43.060;25.618;2023-04-06T08:38:22;8.70;78.80
68354;DHT22;55274;43.060;25.618;2023-04-06T08:40:48;8.70;79.10
68354;DHT22;55274;43.060;25.618;2023-04-06T08:43:17;8.80;78.10
68354;DHT22;55274;43.060;25.618;2023-04-06T08:45:44;8.80;77.40
68354;DHT22;55274;43.060;25.618;2023-04-06T08:48:11;8.90;77.60
68354;DHT22;55274;43.060;25.618;2023-04-06T08:50:38;9.00;77.60
68354;DHT22;55274;43.060;25.618;2023-04-06T08:53:06;9.00;76.90
68354;DHT22;55274;43.060;25.618;2023-04-06T08:55:32;9.10;76.90
68354;DHT22;55274;43.060;25.618;2023-04-06T08:57:59;9.20;77.10
68354;DHT22;55274;43.060;25.618;2023-04-06T09:00:25;9.10;76.80
68354;DHT22;55274;43.060;25.618;2023-04-06T09:02:53;9.00;75.80
68354;DHT22;55274;43.060;25.618;2023-04-06T09:05:21;9.00;76.40
68354;DHT22;55274;43.060;25.618;2023-04-06T09:07:47;9.10;76.30
68354;DHT22;55274;43.060;25.618;2023-04-06T09:10:13;9.00;76.10
68354;DHT22;55274;43.060;25.618;2023-04-06T09:12:38;8.90;75.90
68354;DHT22;55274;43.060;25.618;2023-04-06T09:15:04;8.90;76.90
68354;DHT22;55274;43.060;25.618;2023-04-06T09:17:32;9.10;77.70
68354;DHT22;55274;43.060;25.618;2023-04-06T09:20:02;9.10;76.10
68354;DHT22;55274;43.060;25.618;2023-04-06T09:22:39;9.20;75.10
68354;DHT22;55274;43.060;25.618;2023-04-06T09:25:05;9.30;75.80
68354;DHT22;55274;43.060;25.618;2023-04-06T09:27:36;9.40;75.00
68354;DHT22;55274;43.060;25.618;2023-04-06T09:30:11;9.50;74.00
68354;DHT22;55274;43.060;25.618;2023-04-06T09:32:53;9.70;75.50
68354;DHT22;55274;43.060;25.618;2023-04-06T09:35:20;9.90;73.60
68354;DHT22;55274;43.060;25.618;2023-04-06T09:37:50;10.00;72.90
68354;DHT22;55274;43.060;25.618;2023-04-06T09:40:16;10.00;72.20
68354;DHT22;55274;43.060;25.618;2023-04-06T09:42:46;10.10;71.60
68354;DHT22;55274;43.060;25.618;2023-04-06T09:45:12;10.40;71.90
68354;DHT22;55274;43.060;25.618;2023-04-06T09:47:42;10.50;70.40
68354;DHT22;55274;43.060;25.618;2023-04-06T09:50:10;10.70;69.60
68354;DHT22;55274;43.060;25.618;2023-04-06T09:52:51;10.70;69.30
68354;DHT22;55274;43.060;25.618;2023-04-06T09:55:27;10.90;71.20
68354;DHT22;55274;43.060;25.618;2023-04-06T09:58:05;11.00;68.40
68354;DHT22;55274;43.060;25.618;2023-04-06T10:00:34;11.00;67.40
68354;DHT22;55274;43.060;25.618;2023-04-06T10:03:13;11.30;69.60
68354;DHT22;55274;43.060;25.618;2023-04-06T10:08:08;11.50;67.40
68354;DHT22;55274;43.060;25.618;2023-04-06T10:10:35;11.60;67.30
68354;DHT22;55274;43.060;25.618;2023-04-06T10:13:02;11.70;66.50
68354;DHT22;55274;43.060;25.618;2023-04-06T10:15:29;11.70;64.20
68354;DHT22;55274;43.060;25.618;2023-04-06T10:17:56;11.60;65.50
68354;DHT22;55274;43.060;25.618;2023-04-06T10:23:23;11.40;65.00
68354;DHT22;55274;43.060;25.618;2023-04-06T10:25:57;11.40;65.50
68354;DHT22;55274;43.060;25.618;2023-04-06T10:28:23;11.50;66.50
68354;DHT22;55274;43.060;25.618;2023-04-06T10:30:57;11.70;66.40
68354;DHT22;55274;43.060;25.618;2023-04-06T10:33:23;11.80;65.30
68354;DHT22;55274;43.060;25.618;2023-04-06T10:35:49;12.00;64.60
68354;DHT22;55274;43.060;25.618;2023-04-06T10:38:15;11.90;62.50
68354;DHT22;55274;43.060;25.618;2023-04-06T10:40:45;12.10;63.40
68354;DHT22;55274;43.060;25.618;2023-04-06T10:43:19;12.30;63.90
68354;DHT22;55274;43.060;25.618;2023-04-06T10:45:55;12.50;62.80
68354;DHT22;55274;43.060;25.618;2023-04-06T10:48:22;12.50;62.40
68354;DHT22;55274;43.060;25.618;2023-04-06T10:50:53;12.50;63.00
68354;DHT22;55274;43.060;25.618;2023-04-06T10:53:26;12.30;62.50
68354;DHT22;55274;43.060;25.618;2023-04-06T10:55:56;12.30;62.90
68354;DHT22;55274;43.060;25.618;2023-04-06T10:58:25;12.50;62.10
68354;DHT22;55274;43.060;25.618;2023-04-06T11:00:52;12.80;61.90
68354;DHT22;55274;43.060;25.618;2023-04-06T11:03:18;13.10;62.00
68354;DHT22;55274;43.060;25.618;2023-04-06T11:05:48;13.30;61.20
68354;DHT22;55274;43.060;25.618;2023-04-06T11:08:29;13.30;60.70
68354;DHT22;55274;43.060;25.618;2023-04-06T11:11:12;13.20;60.30
68354;DHT22;55274;43.060;25.618;2023-04-06T11:16:24;13.00;60.50
68354;DHT22;55274;43.060;25.618;2023-04-06T11:18:58;13.10;59.50
68354;DHT22;55274;43.060;25.618;2023-04-06T11:21:42;12.90;60.00
68354;DHT22;55274;43.060;25.618;2023-04-06T11:24:23;12.90;60.00
68354;DHT22;55274;43.060;25.618;2023-04-06T11:26:56;13.20;58.80
68354;DHT22;55274;43.060;25.618;2023-04-06T11:29:24;13.00;58.50
68354;DHT22;55274;43.060;25.618;2023-04-06T11:31:58;13.10;59.80
68354;DHT22;55274;43.060;25.618;2023-04-06T11:34:25;13.10;59.30
68354;DHT22;55274;43.060;25.618;2023-04-06T11:37:10;13.30;57.80
68354;DHT22;55274;43.060;25.618;2023-04-06T11:39:50;13.40;57.90
68354;DHT22;55274;43.060;25.618;2023-04-06T11:42:24;13.40;57.80
68354;DHT22;55274;43.060;25.618;2023-04-06T11:44:51;13.50;58.30
68354;DHT22;55274;43.060;25.618;2023-04-06T11:47:19;13.40;56.70
68354;DHT22;55274;43.060;25.618;2023-04-06T11:49:46;13.50;56.70
68354;DHT22;55274;43.060;25.618;2023-04-06T11:52:24;13.60;56.00
68354;DHT22;55274;43.060;25.618;2023-04-06T11:54:51;13.80;57.10
68354;DHT22;55274;43.060;25.618;2023-04-06T11:57:19;13.80;57.70
68354;DHT22;55274;43.060;25.618;2023-04-06T11:59:45;13.80;57.60
68354;DHT22;55274;43.060;25.618;2023-04-06T12:02:11;13.80;56.60
68354;DHT22;55274;43.060;25.618;2023-04-06T12:04:37;13.90;58.70
68354;DHT22;55274;43.060;25.618;2023-04-06T12:07:03;13.90;57.20
68354;DHT22;55274;43.060;25.618;2023-04-06T12:09:30;13.90;57.50
68354;DHT22;55274;43.060;25.618;2023-04-06T12:11:56;13.80;58.00
68354;DHT22;55274;43.060;25.618;2023-04-06T12:14:23;13.80;55.40
68354;DHT22;55274;43.060;25.618;2023-04-06T12:16:49;13.80;56.50
68354;DHT22;55274;43.060;25.618;2023-04-06T12:19:15;13.90;57.40
68354;DHT22;55274;43.060;25.618;2023-04-06T12:21:40;13.80;56.60
68354;DHT22;55274;43.060;25.618;2023-04-06T12:24:07;13.80;57.90
68354;DHT22;55274;43.060;25.618;2023-04-06T12:26:34;13.90;56.80
68354;DHT22;55274;43.060;25.618;2023-04-06T12:29:00;14.10;57.10
68354;DHT22;55274;43.060;25.618;2023-04-06T12:31:32;14.10;57.40
68354;DHT22;55274;43.060;25.618;2023-04-06T12:33:58;14.10;57.00
68354;DHT22;55274;43.060;25.618;2023-04-06T12:36:24;14.20;57.30
68354;DHT22;55274;43.060;25.618;2023-04-06T12:38:50;14.20;56.20
68354;DHT22;55274;43.060;25.618;2023-04-06T12:41:17;13.90;56.30
68354;DHT22;55274;43.060;25.618;2023-04-06T12:43:43;13.70;54.90
68354;DHT22;55274;43.060;25.618;2023-04-06T12:46:10;13.70;56.40
68354;DHT22;55274;43.060;25.618;2023-04-06T12:48:36;13.60;57.90
68354;DHT22;55274;43.060;25.618;2023-04-06T12:51:04;13.60;56.80
68354;DHT22;55274;43.060;25.618;2023-04-06T12:53:31;13.50;57.50
68354;DHT22;55274;43.060;25.618;2023-04-06T12:55:57;13.60;58.90
68354;DHT22;55274;43.060;25.618;2023-04-06T12:58:25;13.60;56.60
68354;DHT22;55274;43.060;25.618;2023-04-06T13:00:55;13.80;58.10
68354;DHT22;55274;43.060;25.618;2023-04-06T13:03:21;13.70;57.20
68354;DHT22;55274;43.060;25.618;2023-04-06T13:05:51;13.80;58.40
68354;DHT22;55274;43.060;25.618;2023-04-06T13:08:18;14.10;57.80
68354;DHT22;55274;43.060;25.618;2023-04-06T13:10:46;14.10;56.30
68354;DHT22;55274;43.060;25.618;2023-04-06T13:13:14;14.00;55.20
68354;DHT22;55274;43.060;25.618;2023-04-06T13:15:41;13.90;58.00
68354;DHT22;55274;43.060;25.618;2023-04-06T13:18:11;14.00;57.30
68354;DHT22;55274;43.060;25.618;2023-04-06T13:20:37;13.80;55.40
68354;DHT22;55274;43.060;25.618;2023-04-06T13:23:03;13.80;57.20
68354;DHT22;55274;43.060;25.618;2023-04-06T13:25:29;14.00;57.50
68354;DHT22;55274;43.060;25.618;2023-04-06T13:27:55;14.10;56.00
68354;DHT22;55274;43.060;25.618;2023-04-06T13:30:21;14.00;55.10
68354;DHT22;55274;43.060;25.618;2023-04-06T13:32:47;14.00;57.70
68354;DHT22;55274;43.060;25.618;2023-04-06T13:35:13;14.00;56.80
68354;DHT22;55274;43.060;25.618;2023-04-06T13:37:38;14.00;55.10
68354;DHT22;55274;43.060;25.618;2023-04-06T13:40:05;13.90;55.50
68354;DHT22;55274;43.060;25.618;2023-04-06T13:42:32;13.90;55.60
68354;DHT22;55274;43.060;25.618;2023-04-06T13:44:58;13.90;56.50
68354;DHT22;55274;43.060;25.618;2023-04-06T13:47:24;13.90;55.10
68354;DHT22;55274;43.060;25.618;2023-04-06T13:49:50;13.80;55.30
68354;DHT22;55274;43.060;25.618;2023-04-06T13:52:19;13.90;55.70
68354;DHT22;55274;43.060;25.618;2023-04-06T13:54:45;13.70;54.30
68354;DHT22;55274;43.060;25.618;2023-04-06T13:57:11;13.70;54.40
68354;DHT22;55274;43.060;25.618;2023-04-06T13:59:38;13.70;54.70
68354;DHT22;55274;43.060;25.618;2023-04-06T14:02:05;13.70;56.60
68354;DHT22;55274;43.060;25.618;2023-04-06T14:04:32;13.60;54.60
68354;DHT22;55274;43.060;25.618;2023-04-06T14:06:59;13.60;54.70
68354;DHT22;55274;43.060;25.618;2023-04-06T14:09:25;13.60;54.60
68354;DHT22;55274;43.060;25.618;2023-04-06T14:11:51;13.50;54.30
68354;DHT22;55274;43.060;25.618;2023-04-06T14:14:17;13.40;54.00
68354;DHT22;55274;43.060;25.618;2023-04-06T14:16:43;13.40;54.30
68354;DHT22;55274;43.060;25.618;2023-04-06T14:19:13;13.30;53.20
68354;DHT22;55274;43.060;25.618;2023-04-06T14:21:39;13.30;53.10
68354;DHT22;55274;43.060;25.618;2023-04-06T14:24:08;13.30;53.40
68354;DHT22;55274;43.060;25.618;2023-04-06T14:26:38;13.30;54.30
68354;DHT22;55274;43.060;25.618;2023-04-06T14:29:05;13.30;54.30
68354;DHT22;55274;43.060;25.618;2023-04-06T14:31:31;13.30;54.30
68354;DHT22;55274;43.060;25.618;2023-04-06T14:33:58;13.30;54.40
68354;DHT22;55274;43.060;25.618;2023-04-06T14:36:26;13.30;54.10
68354;DHT22;55274;43.060;25.618;2023-04-06T14:38:57;13.30;54.40
68354;DHT22;55274;43.060;25.618;2023-04-06T14:41:24;13.20;53.80
68354;DHT22;55274;43.060;25.618;2023-04-06T14:43:50;13.20;54.50
68354;DHT22;55274;43.060;25.618;2023-04-06T14:46:18;13.10;54.20
68354;DHT22;55274;43.060;25.618;2023-04-06T14:48:44;13.10;54.50
68354;DHT22;55274;43.060;25.618;2023-04-06T14:51:11;13.00;54.20
68354;DHT22;55274;43.060;25.618;2023-04-06T14:53:37;12.90;54.80
68354;DHT22;55274;43.060;25.618;2023-04-06T14:56:03;12.80;54.40
68354;DHT22;55274;43.060;25.618;2023-04-06T14:58:29;12.70;54.80
68354;DHT22;55274;43.060;25.618;2023-04-06T15:00:59;12.70;55.40
68354;DHT22;55274;43.060;25.618;2023-04-06T15:03:26;12.60;55.80
68354;DHT22;55274;43.060;25.618;2023-04-06T15:05:53;12.60;55.70
68354;DHT22;55274;43.060;25.618;2023-04-06T15:08:19;12.60;55.60
68354;DHT22;55274;43.060;25.618;2023-04-06T15:10:48;12.60;56.10
68354;DHT22;55274;43.060;25.618;2023-04-06T15:13:14;12.60;55.40
68354;DHT22;55274;43.060;25.618;2023-04-06T15:15:41;12.40;55.60
68354;DHT22;55274;43.060;25.618;2023-04-06T15:18:07;12.40;55.30
68354;DHT22;55274;43.060;25.618;2023-04-06T15:20:33;12.40;56.00
68354;DHT22;55274;43.060;25.618;2023-04-06T15:23:01;12.40;55.40
68354;DHT22;55274;43.060;25.618;2023-04-06T15:25:27;12.40;55.70
68354;DHT22;55274;43.060;25.618;2023-04-06T15:27:54;12.30;56.30
68354;DHT22;55274;43.060;25.618;2023-04-06T15:30:20;12.10;55.70
68354;DHT22;55274;43.060;25.618;2023-04-06T15:32:55;12.10;55.80